Time;durP1;ratioP1;P1;durP2;ratioP2;P2;SDS_P1;SDS_P2;PMS_P1;PMS_P2;Temp;Humidity;BMP_temperature;BMP_pressure;BME280_temperature;BME280_humidity;BME280_pressure;Samples;Min_cycle;Max_cycle;Signal;HPM_P1;HPM_P2
2022/06/20 00:00:02;;;;;;;9.02;1.80;;;13.10;99.90;;;;;;5053621;28;20045;-79
2022/06/20 00:02:27;;;;;;;8.50;1.75;;;13.10;99.90;;;;;;5052845;28;20384;-79
2022/06/20 00:04:55;;;;;;;6.22;1.75;;;13.10;99.90;;;;;;5069914;28;20124;-79
2022/06/20 00:07:21;;;;;;;6.63;1.70;;;13.10;99.90;;;;;;5054445;28;20057;-78
2022/06/20 00:09:47;;;;;;;12.63;2.08;;;13.10;99.90;;;;;;5053605;28;20052;-78
2022/06/20 00:12:19;;;;;;;6.53;1.70;;;13.10;99.90;;;;;;5053171;28;20041;-78
2022/06/20 00:14:47;;;;;;;18.00;2.45;;;13.10;99.90;;;;;;5052399;28;20049;-79
2022/06/20 00:17:14;;;;;;;4.93;1.60;;;13.10;99.90;;;;;;5051924;28;20485;-79
2022/06/20 00:19:42;;;;;;;10.48;2.42;;;13.00;99.90;;;;;;5053214;28;20052;-79
2022/06/20 00:22:09;;;;;;;8.25;1.60;;;13.10;99.90;;;;;;5052987;28;20107;-79
2022/06/20 00:24:35;;;;;;;6.57;2.00;;;13.00;99.90;;;;;;5052352;28;20404;-78
2022/06/20 00:27:06;;;;;;;7.45;1.77;;;13.00;99.90;;;;;;5052289;28;20040;-78
2022/06/20 00:29:36;;;;;;;15.32;1.95;;;13.00;99.90;;;;;;5070462;28;20048;-78
2022/06/20 00:32:03;;;;;;;6.53;1.55;;;13.00;99.90;;;;;;5068644;28;20523;-78
2022/06/20 00:34:29;;;;;;;9.00;2.22;;;12.90;99.90;;;;;;5072015;28;20048;-78
2022/06/20 00:36:54;;;;;;;10.50;2.22;;;12.90;99.90;;;;;;5052209;28;20041;-78
2022/06/20 00:39:21;;;;;;;9.30;1.75;;;12.90;99.90;;;;;;5073777;28;20411;-79
2022/06/20 00:41:48;;;;;;;5.32;1.40;;;12.90;99.90;;;;;;5054896;28;20067;-79
2022/06/20 00:44:21;;;;;;;4.63;1.80;;;12.90;99.90;;;;;;5052816;28;20045;-79
2022/06/20 00:46:53;;;;;;;6.30;1.90;;;12.90;99.90;;;;;;5052364;28;20045;-79
2022/06/20 00:49:37;;;;;;;8.25;1.80;;;12.90;99.90;;;;;;5053734;28;20045;-79
2022/06/20 00:52:15;;;;;;;7.60;2.10;;;12.90;99.90;;;;;;5053077;28;20041;-79
2022/06/20 00:54:55;;;;;;;12.68;2.28;;;12.80;99.90;;;;;;5052665;28;20095;-79
2022/06/20 00:57:31;;;;;;;9.13;1.85;;;12.80;99.90;;;;;;5052424;28;20049;-79
2022/06/20 01:00:14;;;;;;;8.43;1.80;;;12.80;99.90;;;;;;5050843;28;20044;-79
2022/06/20 01:03:01;;;;;;;7.63;1.75;;;12.80;99.90;;;;;;5052197;28;20059;-79
2022/06/20 01:05:43;;;;;;;9.07;1.80;;;12.70;99.90;;;;;;5051275;28;20091;-79
2022/06/20 01:08:40;;;;;;;7.07;1.83;;;12.70;99.90;;;;;;5052294;28;20484;-79
2022/06/20 01:11:16;;;;;;;6.85;1.55;;;12.70;99.90;;;;;;5045087;28;20405;-79
2022/06/20 01:13:43;;;;;;;13.77;1.95;;;12.60;99.90;;;;;;5051227;28;20057;-79
2022/06/20 01:16:12;;;;;;;10.60;2.03;;;13.50;99.90;;;;;;5052072;28;20140;-79
2022/06/20 01:18:40;;;;;;;8.18;1.98;;;12.60;99.90;;;;;;5068857;28;20072;-79
2022/06/20 01:21:12;;;;;;;6.72;2.00;;;12.50;99.90;;;;;;5069514;28;20106;-79
2022/06/20 01:23:40;;;;;;;8.85;1.95;;;12.50;99.90;;;;;;5072069;28;20083;-79
2022/06/20 01:26:27;;;;;;;10.18;1.67;;;12.40;99.90;;;;;;5053959;28;20068;-78
2022/06/20 01:28:59;;;;;;;5.72;1.60;;;12.40;99.90;;;;;;5053133;28;20045;-78
2022/06/20 01:31:26;;;;;;;4.78;1.70;;;12.40;99.90;;;;;;5053690;28;20045;-79
2022/06/20 01:33:53;;;;;;;5.75;1.77;;;12.30;99.90;;;;;;5052319;28;20551;-79
2022/06/20 01:39:06;;;;;;;4.72;1.58;;;12.30;99.90;;;;;;5051959;28;20083;-79
2022/06/20 01:44:17;;;;;;;7.07;1.48;;;12.10;99.90;;;;;;5052629;28;20048;-78
2022/06/20 01:46:44;;;;;;;9.88;1.95;;;12.10;99.90;;;;;;5071717;28;20101;-79
2022/06/20 01:49:16;;;;;;;3.92;1.10;;;12.00;99.90;;;;;;5071032;28;20123;-79
2022/06/20 01:51:56;;;;;;;6.30;1.67;;;12.10;99.90;;;;;;5052114;28;20102;-78
2022/06/20 01:54:25;;;;;;;6.93;1.50;;;12.00;99.90;;;;;;5052367;28;20056;-78
2022/06/20 01:56:53;;;;;;;7.85;1.55;;;12.00;99.90;;;;;;5051617;28;20045;-78
2022/06/20 01:59:25;;;;;;;7.78;1.70;;;11.90;99.90;;;;;;5051447;28;20048;-78
2022/06/20 02:01:52;;;;;;;6.00;1.73;;;11.90;99.90;;;;;;5052221;28;20400;-78
2022/06/20 02:04:22;;;;;;;9.50;2.13;;;11.80;99.90;;;;;;5051680;28;20214;-79
2022/06/20 02:06:49;;;;;;;5.97;1.50;;;11.80;99.90;;;;;;5051772;28;20049;-79
2022/06/20 02:09:15;;;;;;;7.97;1.95;;;11.80;99.90;;;;;;5050551;28;20129;-79
2022/06/20 02:11:45;;;;;;;9.25;1.52;;;11.70;99.90;;;;;;5071404;28;20139;-79
2022/06/20 02:14:21;;;;;;;9.02;1.73;;;11.70;99.90;;;;;;5056370;28;20577;-79
2022/06/20 02:16:53;;;;;;;10.98;1.92;;;11.60;99.90;;;;;;5055570;28;20049;-79
2022/06/20 02:19:27;;;;;;;5.40;1.77;;;11.60;99.90;;;;;;5055507;28;20413;-79
2022/06/20 02:21:58;;;;;;;7.97;1.42;;;11.70;99.90;;;;;;5056671;28;20053;-79
2022/06/20 02:24:25;;;;;;;6.63;1.70;;;11.70;99.90;;;;;;5055641;28;20045;-79
2022/06/20 02:26:54;;;;;;;7.72;1.85;;;11.70;99.90;;;;;;5055200;28;20129;-79
2022/06/20 02:29:23;;;;;;;10.32;1.90;;;11.70;99.90;;;;;;5056284;28;20041;-79
2022/06/20 02:32:08;;;;;;;8.25;2.67;;;11.70;99.90;;;;;;5056426;28;20396;-79
2022/06/20 02:34:34;;;;;;;8.68;1.75;;;11.80;99.90;;;;;;5055140;28;20049;-79
2022/06/20 02:37:09;;;;;;;10.32;2.42;;;11.80;99.90;;;;;;5054076;28;20056;-79
2022/06/20 02:39:39;;;;;;;8.10;1.80;;;11.80;99.90;;;;;;5054902;28;20041;-79
2022/06/20 02:42:09;;;;;;;7.75;2.00;;;11.80;99.90;;;;;;5071663;28;20040;-79
2022/06/20 02:44:35;;;;;;;7.75;1.73;;;11.80;99.90;;;;;;5053662;28;20084;-79
2022/06/20 02:47:05;;;;;;;5.50;1.70;;;11.90;99.90;;;;;;5058368;28;20442;-79
2022/06/20 02:49:33;;;;;;;9.88;2.13;;;11.90;99.90;;;;;;5058321;28;20041;-78
2022/06/20 02:52:01;;;;;;;6.13;1.70;;;11.90;99.90;;;;;;5053918;28;20150;-79
2022/06/20 02:54:30;;;;;;;3.58;1.40;;;11.90;99.90;;;;;;5055908;28;20045;-78
2022/06/20 02:57:06;;;;;;;3.58;1.30;;;11.80;99.90;;;;;;5056063;28;20128;-78
2022/06/20 02:59:47;;;;;;;8.18;1.63;;;11.80;99.90;;;;;;5055123;28;20052;-79
2022/06/20 03:02:16;;;;;;;6.95;1.60;;;11.80;99.90;;;;;;5073238;28;20084;-78
2022/06/20 03:04:45;;;;;;;4.65;1.50;;;11.70;99.90;;;;;;5073962;28;20143;-78
2022/06/20 03:07:19;;;;;;;3.28;1.42;;;11.70;99.90;;;;;;5073097;28;20055;-79
2022/06/20 03:09:49;;;;;;;4.90;1.55;;;11.70;99.90;;;;;;5056377;28;20438;-79
2022/06/20 03:12:15;;;;;;;6.55;1.42;;;11.60;99.90;;;;;;5054533;28;20037;-79
2022/06/20 03:14:56;;;;;;;5.63;1.20;;;11.50;99.90;;;;;;5054137;28;20068;-78
2022/06/20 03:17:23;;;;;;;8.38;1.20;;;11.50;99.90;;;;;;5054009;28;20493;-78
2022/06/20 03:19:55;;;;;;;7.63;1.73;;;11.40;99.90;;;;;;5061556;28;20043;-78
2022/06/20 03:22:33;;;;;;;8.35;2.00;;;11.40;99.90;;;;;;5071647;28;20084;-78
2022/06/20 03:24:59;;;;;;;9.07;2.05;;;11.40;99.90;;;;;;5054077;28;20049;-78
2022/06/20 03:27:29;;;;;;;10.60;2.20;;;11.30;99.90;;;;;;5053225;28;20489;-78
2022/06/20 03:30:00;;;;;;;4.88;1.73;;;11.30;99.90;;;;;;5070785;28;20041;-78
2022/06/20 03:32:26;;;;;;;4.97;1.77;;;11.30;99.90;;;;;;5053886;28;20080;-79
2022/06/20 03:34:53;;;;;;;6.05;1.80;;;11.20;99.90;;;;;;5054428;28;20122;-79
2022/06/20 03:37:20;;;;;;;6.28;1.65;;;11.20;99.90;;;;;;5055234;28;20059;-79
2022/06/20 03:39:48;;;;;;;20.70;2.10;;;11.20;99.90;;;;;;5053015;28;20067;-79
2022/06/20 03:42:14;;;;;;;8.20;1.73;;;11.10;99.90;;;;;;5055030;28;20084;-78
2022/06/20 03:44:49;;;;;;;6.32;1.50;;;11.00;99.90;;;;;;5053611;28;20048;-78
2022/06/20 03:47:24;;;;;;;6.05;1.67;;;11.00;99.90;;;;;;5052825;28;20071;-79
2022/06/20 03:50:12;;;;;;;6.82;1.88;;;10.90;99.90;;;;;;5054862;28;20041;-78
2022/06/20 03:52:52;;;;;;;5.40;1.42;;;10.90;99.90;;;;;;5053349;28;20072;-79
2022/06/20 03:55:45;;;;;;;6.32;2.00;;;10.90;99.90;;;;;;5052842;28;20450;-79
2022/06/20 03:58:19;;;;;;;8.73;1.58;;;10.90;99.90;;;;;;5054400;28;20056;-78
2022/06/20 04:01:10;;;;;;;9.25;2.03;;;10.90;99.90;;;;;;5053499;28;20033;-78
2022/06/20 04:03:41;;;;;;;8.80;2.03;;;10.90;99.90;;;;;;5053387;28;20072;-79
2022/06/20 04:06:15;;;;;;;6.38;1.85;;;10.90;99.90;;;;;;5052502;28;20078;-79
2022/06/20 04:11:45;;;;;;;5.18;1.77;;;10.90;99.90;;;;;;5060727;28;20044;-78
2022/06/20 04:14:20;;;;;;;7.82;2.00;;;10.90;99.90;;;;;;5074199;28;20060;-79
2022/06/20 04:16:53;;;;;;;6.43;1.98;;;10.90;99.90;;;;;;5065042;28;20037;-78
2022/06/20 04:19:35;;;;;;;12.35;2.42;;;10.90;99.90;;;;;;5053086;28;20493;-78
2022/06/20 04:22:08;;;;;;;7.70;2.00;;;10.90;99.90;;;;;;5060442;28;20048;-79
2022/06/20 04:24:45;;;;;;;4.68;1.77;;;10.90;99.90;;;;;;5074253;28;20044;-79
2022/06/20 04:27:29;;;;;;;10.98;2.30;;;11.00;99.90;;;;;;5063724;28;20053;-79
2022/06/20 04:30:03;;;;;;;10.65;2.10;;;11.20;99.90;;;;;;5068680;28;20098;-78
2022/06/20 04:32:44;;;;;;;14.00;2.77;;;11.30;99.90;;;;;;5052847;28;20041;-79
2022/06/20 04:35:22;;;;;;;6.50;1.80;;;11.40;99.90;;;;;;5051863;28;20303;-78
2022/06/20 04:37:57;;;;;;;8.40;2.33;;;11.50;99.90;;;;;;5051974;28;20041;-78
2022/06/20 04:40:28;;;;;;;5.82;2.10;;;11.60;99.90;;;;;;5052999;28;20049;-78
2022/06/20 04:43:09;;;;;;;11.35;3.20;;;11.60;99.90;;;;;;5052549;28;20431;-79
2022/06/20 04:45:46;;;;;;;8.50;2.13;;;11.60;99.90;;;;;;5052481;28;20469;-78
2022/06/20 04:48:19;;;;;;;8.93;2.20;;;11.60;99.90;;;;;;5066536;28;20484;-78
2022/06/20 04:50:51;;;;;;;11.20;2.47;;;11.60;99.90;;;;;;5071909;28;20037;-79
2022/06/20 04:53:21;;;;;;;5.85;2.50;;;11.70;99.90;;;;;;5071368;28;20059;-78
2022/06/20 04:55:53;;;;;;;8.48;2.28;;;11.80;99.90;;;;;;5072500;28;20106;-78
2022/06/20 04:58:25;;;;;;;5.57;2.00;;;11.80;99.90;;;;;;5053775;28;20048;-78
2022/06/20 05:00:52;;;;;;;12.80;2.10;;;11.90;99.90;;;;;;5066382;28;20053;-78
2022/06/20 05:03:23;;;;;;;8.02;3.05;;;12.10;99.90;;;;;;5052307;28;20048;-78
2022/06/20 05:05:51;;;;;;;7.90;2.90;;;12.20;99.90;;;;;;5055424;28;20037;-79
2022/06/20 05:08:31;;;;;;;15.55;3.03;;;12.30;99.90;;;;;;5073424;28;20048;-79
2022/06/20 05:11:08;;;;;;;13.07;2.53;;;12.30;99.90;;;;;;5066358;28;20481;-79
2022/06/20 05:13:46;;;;;;;11.13;3.00;;;13.60;99.90;;;;;;5053328;28;20053;-80
2022/06/20 05:16:23;;;;;;;10.43;2.88;;;12.60;99.90;;;;;;5043432;28;20109;-80
2022/06/20 05:18:56;;;;;;;10.10;2.80;;;12.70;99.90;;;;;;5081056;28;20040;-80
2022/06/20 05:21:50;;;;;;;8.88;2.78;;;12.80;99.90;;;;;;5071571;28;20392;-80
2022/06/20 05:24:20;;;;;;;6.45;2.40;;;12.90;99.90;;;;;;5056364;28;20055;-80
2022/06/20 05:26:49;;;;;;;12.82;3.50;;;13.00;99.90;;;;;;5065472;28;20044;-81
2022/06/20 05:29:19;;;;;;;9.18;2.67;;;13.00;99.90;;;;;;5071686;28;20492;-80
2022/06/20 05:31:49;;;;;;;10.15;3.50;;;13.10;99.90;;;;;;5073140;28;20047;-79
2022/06/20 05:34:30;;;;;;;13.80;3.90;;;13.20;99.90;;;;;;5054715;28;20424;-80
2022/06/20 05:37:14;;;;;;;10.13;3.90;;;13.30;99.90;;;;;;5073307;28;20435;-80
2022/06/20 05:39:48;;;;;;;12.45;3.35;;;13.40;99.90;;;;;;5089508;28;20044;-80
2022/06/20 05:42:16;;;;;;;7.72;3.22;;;13.50;99.90;;;;;;5093322;28;20044;-80
2022/06/20 05:44:43;;;;;;;8.98;3.00;;;13.50;99.90;;;;;;5079977;28;20067;-80
2022/06/20 05:47:34;;;;;;;14.18;3.90;;;13.60;99.90;;;;;;5075322;28;20419;-80
2022/06/20 05:50:27;;;;;;;17.52;3.88;;;13.70;99.90;;;;;;5054937;28;20060;-80
2022/06/20 05:52:54;;;;;;;14.50;3.50;;;13.90;99.90;;;;;;5040326;28;20091;-78
2022/06/20 05:55:43;;;;;;;11.93;3.00;;;14.00;99.90;;;;;;5055260;28;20048;-79
2022/06/20 05:58:17;;;;;;;14.57;3.83;;;14.10;99.90;;;;;;5058170;28;20041;-79
2022/06/20 06:00:44;;;;;;;8.65;2.97;;;14.20;99.90;;;;;;5054805;28;20041;-85
2022/06/20 06:03:34;;;;;;;15.43;3.33;;;14.30;99.90;;;;;;5073614;28;20049;-86
2022/06/20 06:06:15;;;;;;;13.27;3.40;;;14.40;99.90;;;;;;5055802;28;20041;-88
2022/06/20 06:08:49;;;;;;;19.17;4.43;;;14.50;99.90;;;;;;5057887;28;20082;-85
2022/06/20 06:11:23;;;;;;;14.40;3.70;;;14.60;99.90;;;;;;5084345;28;20491;-86
2022/06/20 06:13:53;;;;;;;;;;;14.70;99.90;;;;;;5074466;28;20049;-86
2022/06/20 06:19:30;;;;;;;15.80;3.15;;;14.80;99.90;;;;;;5086184;28;20059;-87
2022/06/20 06:22:00;;;;;;;20.05;3.53;;;15.00;99.90;;;;;;5071580;28;20063;-86
2022/06/20 06:24:28;;;;;;;11.65;2.75;;;15.00;99.90;;;;;;5063493;28;20044;-85
2022/06/20 06:26:57;;;;;;;15.27;2.80;;;14.90;99.90;;;;;;5055213;28;20048;-85
2022/06/20 06:29:35;;;;;;;11.88;2.72;;;15.00;99.90;;;;;;5052885;28;20051;-84
2022/06/20 06:32:11;;;;;;;12.68;3.53;;;15.00;99.90;;;;;;5071857;28;20539;-84
2022/06/20 06:34:52;;;;;;;14.85;3.38;;;15.00;99.90;;;;;;5074927;28;20060;-85
2022/06/20 06:37:31;;;;;;;12.20;2.78;;;14.90;99.90;;;;;;5069676;28;20088;-83
2022/06/20 06:40:23;;;;;;;13.68;3.00;;;14.90;99.90;;;;;;5071447;28;20128;-84
2022/06/20 06:42:56;;;;;;;13.30;3.25;;;15.00;99.90;;;;;;5083089;28;20044;-83
2022/06/20 06:45:25;;;;;;;14.20;3.03;;;15.00;99.90;;;;;;5073589;28;20131;-86
2022/06/20 06:48:09;;;;;;;8.25;2.60;;;15.00;99.90;;;;;;5070978;28;20059;-87
2022/06/20 06:50:43;;;;;;;13.20;3.13;;;15.00;99.90;;;;;;5073665;28;20072;-84
2022/06/20 06:53:19;;;;;;;11.93;3.88;;;15.00;99.90;;;;;;5071054;28;20058;-84
2022/06/20 06:55:50;;;;;;;10.32;2.75;;;15.20;99.90;;;;;;5077070;28;20361;-85
2022/06/20 06:58:25;;;;;;;15.13;3.05;;;15.20;99.90;;;;;;5071570;28;20033;-85
2022/06/20 07:00:54;;;;;;;;;;;15.40;99.90;;;;;;5075105;28;20055;-84
2022/06/20 07:03:37;;;;;;;17.60;3.78;;;15.60;99.90;;;;;;5077161;28;19955;-84
2022/06/20 07:06:11;;;;;;;7.47;2.40;;;15.80;99.90;;;;;;5055252;28;20183;-86
2022/06/20 07:08:44;;;;;;;10.68;2.83;;;15.90;99.90;;;;;;5071805;28;20040;-86
2022/06/20 07:11:25;;;;;;;10.57;2.65;;;16.00;99.90;;;;;;5056823;28;20071;-83
2022/06/20 07:14:22;;;;;;;8.50;2.67;;;16.10;99.90;;;;;;5072807;28;20056;-85
2022/06/20 07:16:58;;;;;;;12.95;2.78;;;16.10;99.90;;;;;;5074223;28;20046;-86
2022/06/20 07:19:25;;;;;;;8.48;2.40;;;16.00;99.90;;;;;;5053155;28;20532;-85
2022/06/20 07:21:52;;;;;;;9.52;2.47;;;16.00;99.90;;;;;;5053795;28;20080;-87
2022/06/20 07:24:25;;;;;;;7.93;2.28;;;16.10;99.90;;;;;;5059406;28;20124;-86
2022/06/20 07:27:06;;;;;;;9.55;2.90;;;16.20;99.90;;;;;;5054317;28;20049;-81
2022/06/20 07:30:13;;;;;;;9.02;2.72;;;16.30;99.90;;;;;;5055143;28;20116;-85
2022/06/20 07:32:52;;;;;;;10.98;2.63;;;16.30;99.90;;;;;;5053764;28;20056;-86
2022/06/20 07:35:32;;;;;;;7.85;2.08;;;16.40;99.90;;;;;;5059801;28;20033;-82
2022/06/20 07:38:28;;;;;;;10.60;2.50;;;16.40;99.90;;;;;;5051858;28;20049;-87
2022/06/20 07:41:09;;;;;;;7.40;2.25;;;16.30;99.90;;;;;;5065653;28;20047;-86
2022/06/20 07:43:37;;;;;;;11.98;2.78;;;16.20;99.90;;;;;;5054459;28;20515;-84
2022/06/20 07:46:16;;;;;;;10.57;1.75;;;16.20;99.90;;;;;;5066676;28;20052;-85
2022/06/20 07:48:44;;;;;;;9.38;2.53;;;16.40;99.90;;;;;;5066220;28;20041;-84
2022/06/20 07:51:18;;;;;;;5.90;1.50;;;16.50;99.90;;;;;;5053640;28;20041;-84
2022/06/20 07:53:58;;;;;;;7.30;1.27;;;16.70;99.90;;;;;;5041407;28;20488;-81
2022/06/20 07:56:34;;;;;;;3.95;1.15;;;16.60;99.90;;;;;;5056559;28;20048;-81
2022/06/20 07:59:08;;;;;;;8.80;1.90;;;16.40;99.90;;;;;;5065112;28;20041;-80
2022/06/20 08:01:45;;;;;;;11.70;1.92;;;16.20;99.90;;;;;;5052422;28;20044;-81
2022/06/20 08:04:12;;;;;;;6.90;1.73;;;16.10;99.90;;;;;;5052979;28;20049;-83
2022/06/20 08:06:44;;;;;;;5.32;1.73;;;16.10;99.90;;;;;;5053341;28;20041;-81
2022/06/20 08:09:25;;;;;;;4.72;1.55;;;16.10;99.90;;;;;;5052197;28;20508;-81
2022/06/20 08:12:24;;;;;;;22.85;4.97;;;16.20;99.90;;;;;;5054489;28;20128;-82
2022/06/20 08:15:02;;;;;;;2.53;1.10;;;16.30;99.90;;;;;;5043096;28;20041;-80
2022/06/20 08:17:32;;;;;;;8.02;1.73;;;16.20;99.90;;;;;;5069642;28;20052;-80
2022/06/20 08:19:59;;;;;;;3.92;1.20;;;16.20;99.90;;;;;;5053076;28;20045;-80
2022/06/20 08:22:50;;;;;;;8.98;1.60;;;16.20;99.90;;;;;;5052092;28;20043;-82
2022/06/20 08:25:34;;;;;;;11.05;1.73;;;16.40;99.90;;;;;;5053024;28;20110;-82
2022/06/20 08:28:15;;;;;;;5.53;1.65;;;16.50;99.90;;;;;;5053031;28;20128;-81
2022/06/20 08:30:51;;;;;;;5.53;1.60;;;16.70;99.90;;;;;;5052330;28;20485;-82
2022/06/20 08:33:45;;;;;;;6.30;1.48;;;16.80;99.90;;;;;;5053968;28;20087;-83
2022/06/20 08:36:38;;;;;;;8.80;1.70;;;16.90;99.90;;;;;;5068084;28;20106;-79
2022/06/20 08:39:12;;;;;;;6.72;1.85;;;16.90;99.90;;;;;;5052378;28;20049;-80
2022/06/20 08:41:53;;;;;;;8.23;1.55;;;16.80;99.90;;;;;;5053675;28;20124;-81
2022/06/20 08:44:41;;;;;;;3.67;1.60;;;16.80;99.90;;;;;;5057259;28;20045;-80
2022/06/20 08:47:37;;;;;;;6.72;2.05;;;16.80;99.90;;;;;;5053473;28;20420;-81
2022/06/20 08:50:03;;;;;;;7.22;1.63;;;16.90;99.90;;;;;;5079885;28;20064;-81
2022/06/20 08:53:05;;;;;;;7.03;1.50;;;17.00;99.90;;;;;;5053667;28;20412;-79
2022/06/20 08:56:01;;;;;;;8.82;1.25;;;17.10;99.90;;;;;;5071701;28;20061;-82
2022/06/20 08:58:53;;;;;;;7.07;1.55;;;17.00;99.90;;;;;;5051524;28;20393;-79
2022/06/20 09:01:28;;;;;;;5.35;1.45;;;17.00;99.90;;;;;;5058046;28;20052;-81
2022/06/20 09:04:14;;;;;;;5.50;2.05;;;17.00;99.90;;;;;;5070860;28;20470;-80
2022/06/20 09:06:43;;;;;;;5.70;1.45;;;17.00;99.90;;;;;;5060194;28;20045;-81
2022/06/20 09:09:17;;;;;;;8.88;1.67;;;16.90;99.90;;;;;;5052985;28;20132;-81
2022/06/20 09:12:31;;;;;;;8.13;2.65;;;16.80;99.90;;;;;;5051378;28;20044;-81
2022/06/20 09:15:07;;;;;;;7.07;2.83;;;16.60;99.90;;;;;;5032347;28;20065;-80
2022/06/20 09:17:56;;;;;;;7.20;2.17;;;16.50;99.90;;;;;;5028954;28;20045;-80
2022/06/20 09:20:34;;;;;;;11.15;2.55;;;16.50;99.90;;;;;;5047347;28;20049;-80
2022/06/20 09:23:31;;;;;;;8.48;1.73;;;16.40;99.90;;;;;;5052168;28;20048;-82
2022/06/20 09:26:31;;;;;;;5.80;1.85;;;16.40;99.90;;;;;;5050924;28;20428;-83
2022/06/20 09:29:03;;;;;;;8.63;1.95;;;16.40;99.90;;;;;;5019853;28;20053;-80
2022/06/20 09:31:59;;;;;;;6.60;2.25;;;16.50;99.90;;;;;;5054503;28;20401;-78
2022/06/20 09:34:41;;;;;;;5.57;1.23;;;16.80;99.90;;;;;;5068394;28;20052;-78
2022/06/20 09:37:25;;;;;;;6.80;1.33;;;16.80;99.90;;;;;;5067768;28;20044;-80
2022/06/20 09:40:31;;;;;;;4.35;1.42;;;16.80;99.90;;;;;;5072489;28;20464;-79
2022/06/20 09:43:13;;;;;;;7.90;1.40;;;16.90;99.90;;;;;;5072893;28;20083;-81
2022/06/20 09:45:44;;;;;;;6.95;1.52;;;16.90;99.90;;;;;;5039742;28;20033;-80
2022/06/20 09:48:31;;;;;;;9.20;2.10;;;17.00;99.90;;;;;;5054625;28;20095;-81
2022/06/20 09:51:35;;;;;;;5.88;1.30;;;17.10;99.90;;;;;;5071873;28;20841;-80
2022/06/20 09:54:22;;;;;;;4.93;1.38;;;17.30;99.90;;;;;;5039645;28;20057;-79
2022/06/20 09:56:57;;;;;;;7.95;1.50;;;17.30;99.90;;;;;;5052979;28;20044;-80
2022/06/20 09:59:45;;;;;;;6.90;1.30;;;17.40;99.90;;;;;;5060077;28;20048;-80
2022/06/20 10:02:43;;;;;;;8.95;1.50;;;17.60;99.90;;;;;;5071681;28;20055;-80
2022/06/20 10:05:31;;;;;;;12.30;2.40;;;17.60;99.90;;;;;;5051760;28;20049;-81
2022/06/20 10:08:10;;;;;;;7.00;1.63;;;17.50;99.90;;;;;;5050848;28;20052;-82
2022/06/20 10:10:39;;;;;;;7.70;1.70;;;17.40;99.90;;;;;;5060568;28;20044;-81
2022/06/20 10:13:18;;;;;;;3.08;1.20;;;17.50;99.90;;;;;;5071160;28;20059;-83
2022/06/20 10:15:54;;;;;;;3.30;1.25;;;17.50;99.90;;;;;;5043982;28;20111;-80
2022/06/20 10:18:33;;;;;;;8.35;1.52;;;17.60;99.90;;;;;;5052136;28;20060;-81
2022/06/20 10:21:05;;;;;;;5.90;1.40;;;17.70;99.90;;;;;;5079715;28;20391;-79
2022/06/20 10:24:13;;;;;;;6.32;1.63;;;17.70;99.90;;;;;;5070644;28;20044;-79
2022/06/20 10:27:06;;;;;;;6.60;1.35;;;17.90;99.90;;;;;;5071336;28;20123;-80
2022/06/20 10:30:04;;;;;;;3.72;1.40;;;17.90;99.90;;;;;;5054688;28;20370;-80
2022/06/20 10:32:55;;;;;;;6.40;1.30;;;17.90;99.90;;;;;;5071050;28;20130;-82
2022/06/20 10:35:43;;;;;;;6.65;1.83;;;18.00;99.90;;;;;;5072505;28;20052;-82
2022/06/20 10:38:28;;;;;;;16.08;1.95;;;18.00;99.90;;;;;;5054862;28;20049;-82
2022/06/20 10:41:06;;;;;;;7.53;2.00;;;17.80;99.90;;;;;;5060147;28;20491;-85
2022/06/20 10:43:47;;;;;;;8.85;2.03;;;17.70;99.90;;;;;;5073805;28;20049;-83
2022/06/20 10:46:42;;;;;;;6.82;1.90;;;17.70;99.90;;;;;;5068383;28;20488;-84
2022/06/20 10:49:08;;;;;;;8.55;2.58;;;17.60;99.90;;;;;;5069913;28;20052;-85
2022/06/20 10:52:04;;;;;;;10.00;1.90;;;17.50;99.90;;;;;;5058205;28;20052;-83
2022/06/20 10:54:54;;;;;;;6.97;2.30;;;17.40;99.90;;;;;;5077073;28;20114;-80
2022/06/20 10:57:34;;;;;;;7.47;1.65;;;17.20;99.90;;;;;;5050824;28;20079;-78
2022/06/20 11:00:06;;;;;;;8.25;2.03;;;17.30;99.90;;;;;;5072956;28;20090;-78
2022/06/20 11:03:07;;;;;;;7.95;2.70;;;17.50;99.90;;;;;;5074402;28;20055;-80
2022/06/20 11:05:52;;;;;;;4.40;1.30;;;17.70;99.90;;;;;;5074350;28;20041;-84
2022/06/20 11:08:56;;;;;;;7.82;1.90;;;17.80;99.90;;;;;;5074454;28;20130;-80
2022/06/20 11:11:25;;;;;;;8.10;1.95;;;17.60;99.90;;;;;;5073513;28;20048;-80
2022/06/20 11:14:19;;;;;;;10.95;2.15;;;17.50;99.90;;;;;;5073911;28;20063;-83
2022/06/20 11:17:20;;;;;;;14.27;2.42;;;17.40;99.90;;;;;;5074041;28;20059;-81
2022/06/20 11:20:08;;;;;;;7.85;2.30;;;17.20;99.90;;;;;;5074329;28;20466;-80
2022/06/20 11:22:41;;;;;;;8.63;2.00;;;17.10;99.90;;;;;;5075385;28;20076;-79
2022/06/20 11:25:23;;;;;;;5.50;1.63;;;17.00;99.90;;;;;;5073151;28;20136;-80
2022/06/20 11:28:04;;;;;;;9.80;2.60;;;17.10;99.90;;;;;;5074018;28;20118;-82
2022/06/20 11:30:49;;;;;;;8.70;1.50;;;17.20;99.90;;;;;;5074098;28;20104;-81
2022/06/20 11:34:00;;;;;;;8.10;2.08;;;17.40;99.90;;;;;;5073748;28;20044;-81
2022/06/20 11:36:15;;;;;;;6.03;1.60;;;17.40;99.90;;;;;;5060753;28;20106;-80
2022/06/20 11:38:59;;;;;;;6.10;1.38;;;17.60;99.90;;;;;;5077247;28;20411;-81
2022/06/20 11:41:30;;;;;;;7.93;1.75;;;17.80;99.90;;;;;;5060712;28;20510;-81
2022/06/20 11:44:15;;;;;;;6.32;1.67;;;17.90;99.90;;;;;;5073212;28;20040;-80
2022/06/20 11:46:59;;;;;;;3.60;1.48;;;18.00;99.90;;;;;;5072744;28;20382;-82
2022/06/20 11:49:37;;;;;;;5.50;1.23;;;18.10;99.90;;;;;;5067392;28;20463;-83
2022/06/20 11:52:17;;;;;;;4.45;1.50;;;18.10;99.90;;;;;;5071967;28;20330;-82
2022/06/20 11:55:18;;;;;;;4.78;1.65;;;18.10;99.90;;;;;;5058440;28;20048;-80
2022/06/20 11:57:52;;;;;;;5.55;2.25;;;18.00;99.90;;;;;;5071875;28;20052;-79
2022/06/20 12:00:42;;;;;;;7.68;1.55;;;17.90;99.90;;;;;;5056820;28;20047;-80
2022/06/20 12:03:16;;;;;;;8.48;1.83;;;17.80;99.90;;;;;;5058798;28;20054;-81
2022/06/20 12:06:05;;;;;;;6.30;1.52;;;17.60;99.90;;;;;;5072632;28;20053;-82
2022/06/20 12:08:43;;;;;;;4.07;1.40;;;17.50;99.90;;;;;;5055724;28;20048;-85
2022/06/20 12:11:47;;;;;;;5.50;1.20;;;17.60;99.90;;;;;;5069576;28;20043;-82
2022/06/20 12:14:23;;;;;;;5.85;1.67;;;17.70;99.90;;;;;;5052796;28;20123;-84
2022/06/20 12:17:10;;;;;;;6.03;1.95;;;17.90;99.90;;;;;;5084299;28;20094;-83
2022/06/20 12:25:41;;;;;;;5.25;1.23;;;17.80;99.90;;;;;;5087426;28;20060;-82
2022/06/20 12:28:27;;;;;;;8.43;1.52;;;17.80;99.90;;;;;;5051573;28;20389;-82
2022/06/20 12:31:30;;;;;;;4.38;1.25;;;17.90;99.90;;;;;;5053993;28;20052;-81
2022/06/20 12:34:18;;;;;;;5.03;1.20;;;17.90;99.90;;;;;;5037590;28;20064;-82
2022/06/20 12:37:11;;;;;;;5.53;1.40;;;17.70;99.90;;;;;;5072301;28;20488;-83
2022/06/20 12:39:50;;;;;;;5.65;1.58;;;17.50;99.90;;;;;;5049818;28;20045;-86
2022/06/20 12:42:38;;;;;;;6.10;1.40;;;17.60;99.90;;;;;;5038472;28;20029;-84
2022/06/20 12:45:47;;;;;;;3.75;1.20;;;17.70;99.90;;;;;;5061877;28;20135;-83
2022/06/20 12:48:16;;;;;;;5.90;1.63;;;17.90;99.90;;;;;;5066129;28;20496;-82
2022/06/20 12:51:03;;;;;;;4.03;1.30;;;17.90;99.90;;;;;;5061880;28;20092;-85
2022/06/20 12:54:12;;;;;;;3.97;1.25;;;17.80;99.90;;;;;;5057146;28;20047;-84
2022/06/20 12:56:41;;;;;;;8.10;2.85;;;17.70;99.90;;;;;;5065903;28;20109;-82
2022/06/20 12:59:31;;;;;;;4.25;1.33;;;17.60;99.90;;;;;;5092912;28;20411;-84
2022/06/20 13:02:18;;;;;;;5.25;1.20;;;17.80;99.90;;;;;;5043693;28;20441;-82
2022/06/20 13:04:56;;;;;;;6.95;2.00;;;17.70;99.90;;;;;;5052845;28;20053;-81
2022/06/20 13:07:33;;;;;;;5.53;1.33;;;17.70;99.90;;;;;;5049350;28;20136;-80
2022/06/20 13:10:30;;;;;;;5.47;1.60;;;17.60;99.90;;;;;;5057821;28;20090;-82
2022/06/20 13:13:07;;;;;;;4.28;1.38;;;17.40;99.90;;;;;;5060794;28;20107;-83
2022/06/20 13:15:51;;;;;;;4.70;1.50;;;17.50;99.90;;;;;;5053246;28;20056;-85
2022/06/20 13:18:43;;;;;;;5.00;1.23;;;17.60;99.90;;;;;;5060523;28;20043;-83
2022/06/20 13:21:16;;;;;;;2.30;1.25;;;17.80;99.90;;;;;;5073206;28;20037;-81
2022/06/20 13:23:56;;;;;;;5.45;1.30;;;17.90;99.90;;;;;;5061461;28;20108;-81
2022/06/20 13:26:33;;;;;;;5.32;1.45;;;18.00;99.90;;;;;;5065285;28;20400;-82
2022/06/20 13:29:39;;;;;;;7.45;1.75;;;17.80;99.90;;;;;;5066266;28;20048;-82
2022/06/20 13:32:34;;;;;;;6.78;1.75;;;17.60;99.90;;;;;;5051126;28;20492;-82
2022/06/20 13:35:23;;;;;;;4.68;1.10;;;17.60;99.90;;;;;;5037523;28;20071;-82
2022/06/20 13:37:52;;;;;;;2.10;1.13;;;17.80;99.90;;;;;;5051954;28;20111;-80
2022/06/20 13:40:30;;;;;;;2.95;1.20;;;17.90;99.90;;;;;;5052708;28;20546;-81
2022/06/20 13:43:14;;;;;;;3.75;1.75;;;17.80;99.90;;;;;;5063115;28;20463;-80
2022/06/20 13:46:00;;;;;;;3.92;1.05;;;17.70;99.90;;;;;;5061168;28;20041;-82
2022/06/20 13:48:40;;;;;;;3.00;1.33;;;17.60;99.90;;;;;;5065233;28;20041;-80
2022/06/20 13:51:21;;;;;;;2.25;1.20;;;17.80;99.90;;;;;;5052992;28;20128;-81
2022/06/20 13:53:54;;;;;;;6.75;1.25;;;17.90;99.90;;;;;;5060734;28;20051;-84
2022/06/20 13:56:34;;;;;;;4.78;1.45;;;18.00;99.90;;;;;;5071697;28;20047;-82
2022/06/20 13:59:17;;;;;;;5.40;1.35;;;18.10;99.90;;;;;;5065004;28;20109;-80